createdAt,value
2022-10-28T00:00:51.127Z,66.04003906
2022-10-28T00:01:50.507Z,66.109375
2022-10-28T00:02:46.208Z,66.234375
2022-10-28T00:03:46.911Z,66.50976563
2022-10-28T00:04:41.984Z,66.40625
2022-10-28T00:06:27.981Z,65.28027344
2022-10-28T00:07:07.051Z,65.15429688
2022-10-28T00:08:11.110Z,65.40234375
2022-10-28T00:09:12.282Z,65.56054688
2022-10-28T00:10:08.670Z,65.12304688
2022-10-28T00:11:08.856Z,65.00878906
2022-10-28T00:12:03.165Z,65.31640625
2022-10-28T00:13:02.988Z,65.22167969
2022-10-28T00:13:57.778Z,65.17285156
2022-10-28T00:14:58.996Z,65.67675781
2022-10-28T00:15:55.485Z,65.59375
2022-10-28T00:16:55.655Z,65.44335938
2022-10-28T00:17:50.148Z,65.33886719
2022-10-28T00:18:54.002Z,65.37597656
2022-10-28T00:19:49.662Z,65.49609375
2022-10-28T00:20:51.847Z,65.33691406
2022-10-28T00:21:57.581Z,65.47558594
2022-10-28T00:23:01.926Z,65.2890625
2022-10-28T00:23:56.308Z,65.30761719
2022-10-28T00:25:00.093Z,65.87792969
2022-10-28T00:25:54.651Z,65.578125
2022-10-28T00:26:54.315Z,65.484375
2022-10-28T00:27:49.211Z,65.51757813
2022-10-28T00:28:49.268Z,65.66601563
2022-10-28T00:29:44.482Z,65.65332031
2022-10-28T00:30:48.119Z,65.40039063
2022-10-28T00:31:45.159Z,65.51367188
2022-10-28T00:32:48.829Z,65.60351563
2022-10-28T00:33:41.343Z,65.85546875
2022-10-28T00:34:41.027Z,65.88964844
2022-10-28T00:35:39.317Z,65.75292969
2022-10-28T00:36:40.149Z,65.04101563
2022-10-28T00:37:35.453Z,65.02832031
2022-10-28T00:38:36.889Z,64.97070313
2022-10-28T00:39:29.498Z,65.0859375
2022-10-28T00:40:29.527Z,65.30566406
2022-10-28T00:41:31.342Z,65.08691406
2022-10-28T00:42:29.015Z,65.24511719
2022-10-28T00:43:31.216Z,65.08300781
2022-10-28T00:44:25.690Z,64.99121094
2022-10-28T00:47:05.995Z,64.92675781
2022-10-28T00:47:37.664Z,64.55664063
2022-10-28T00:48:35.738Z,64.38378906
2022-10-28T00:49:40.948Z,64.35058594
2022-10-28T00:50:39.935Z,64.08691406
2022-10-28T00:51:35.574Z,64.20996094
2022-10-28T00:52:38.251Z,64.046875
2022-10-28T00:53:33.883Z,64.25
2022-10-28T00:54:36.309Z,64.48925781
2022-10-28T00:55:31.419Z,64.60351563
2022-10-28T00:56:31.027Z,64.29101563
2022-10-28T00:57:27.662Z,64.12695313
2022-10-28T00:58:29.700Z,63.82910156
2022-10-28T00:59:29.820Z,63.40527344
2022-10-28T01:00:30.427Z,63.3125
2022-10-28T01:01:32.457Z,63.63183594
2022-10-28T01:02:35.442Z,63.67773438
2022-10-28T01:03:29.708Z,63.87207031
2022-10-28T01:04:30.378Z,63.84082031
2022-10-28T01:05:29.481Z,63.796875
2022-10-28T01:06:34.347Z,63.83300781
2022-10-28T01:07:30.940Z,63.05761719
2022-10-28T01:08:32.258Z,62.73925781
2022-10-28T01:09:28.073Z,63.31054688
2022-10-28T01:16:16.126Z,57.83300781
2022-10-28T01:19:33.541Z,57.06835938
2022-10-28T01:21:20.043Z,57.62890625
2022-10-28T01:22:19.830Z,58.03613281
2022-10-28T01:23:16.379Z,57.9609375
2022-10-28T01:24:17.757Z,57.77050781
2022-10-28T01:25:11.921Z,58.74316406
2022-10-28T01:26:12.917Z,59.19238281
2022-10-28T01:27:13.028Z,59.56933594
2022-10-28T01:28:13.823Z,58.87890625
2022-10-28T01:29:07.958Z,59.19433594
2022-10-28T01:31:05.921Z,59.68457031
2022-10-28T01:32:05.603Z,59.52050781
2022-10-28T01:32:59.957Z,59.73828125
2022-10-28T01:33:55.934Z,59.35351563
2022-10-28T01:34:58.243Z,59.92285156
2022-10-28T01:36:46.545Z,60.34765625
2022-10-28T01:37:52.712Z,60.54296875
2022-10-28T01:38:46.889Z,60.88769531
2022-10-28T01:39:48.533Z,60.3671875
2022-10-28T01:40:42.771Z,60.84179688
2022-10-28T01:41:48.143Z,60.23339844
2022-10-28T01:42:38.587Z,61.02539063
2022-10-28T01:43:36.495Z,60.06054688
2022-10-28T01:44:33.952Z,60.34765625
2022-10-28T01:45:35.565Z,60.23339844
2022-10-28T01:46:29.935Z,60.12988281
2022-10-28T01:47:27.462Z,60.11816406
2022-10-28T01:48:21.804Z,60.14160156
2022-10-28T01:49:19.287Z,60.48730469
2022-10-28T01:51:07.355Z,60.85546875
2022-10-28T01:52:05.597Z,60.63574219
2022-10-28T01:52:59.894Z,61.01367188
2022-10-28T01:54:00.349Z,61.3125
2022-10-28T01:54:54.811Z,61.58789063
2022-10-28T01:55:54.162Z,61.54296875
2022-10-28T01:56:46.694Z,61.38183594
2022-10-28T01:57:42.564Z,61.53125
2022-10-28T01:58:42.600Z,61.515625
2022-10-28T02:00:27.578Z,61.51367188
2022-10-28T02:01:08.494Z,61.28125
2022-10-28T02:02:09.703Z,60.640625
2022-10-28T02:03:07.209Z,60.91601563
2022-10-28T02:04:06.259Z,61.22265625
2022-10-28T02:05:00.816Z,61.75976563
2022-10-28T02:06:00.317Z,61.87109375
2022-10-28T02:06:59.934Z,61.86621094
2022-10-28T02:07:54.275Z,61.05761719
2022-10-28T02:08:55.739Z,61.34179688
2022-10-28T02:09:50.287Z,61.75390625
2022-10-28T02:11:48.507Z,61.54492188
2022-10-28T02:12:51.546Z,61.68164063
2022-10-28T02:13:43.323Z,61.8203125
2022-10-28T02:14:42.381Z,62.05175781
2022-10-28T02:15:37.421Z,61.44433594
2022-10-28T02:16:42.119Z,61.42871094
2022-10-28T02:17:39.484Z,61.92285156
2022-10-28T02:18:38.824Z,61.56640625
2022-10-28T02:19:39.306Z,61.83886719
2022-10-28T02:20:34.645Z,62.10644531
2022-10-28T02:21:36.585Z,61.55957031
2022-10-28T02:22:28.759Z,61.82617188
2022-10-28T02:23:31.728Z,61.78125
2022-10-28T02:24:31.226Z,61.69042969
2022-10-28T02:25:30.466Z,61.63476563
2022-10-28T02:26:27.618Z,62.12890625
2022-10-28T02:27:29.166Z,61.78320313
2022-10-28T02:28:24.439Z,61.77246094
2022-10-28T02:29:30.116Z,61.9765625
2022-10-28T02:30:23.506Z,61.56542969
2022-10-28T02:31:23.981Z,61.8984375
2022-10-28T02:32:18.661Z,61.83886719
2022-10-28T02:33:22.721Z,61.82714844
2022-10-28T02:34:17.370Z,61.94042969
2022-10-28T02:36:43.564Z,61.67382813
2022-10-28T02:37:22.366Z,61.82714844
2022-10-28T02:38:21.543Z,61.85644531
2022-10-28T02:39:22.411Z,62.08691406
2022-10-28T02:40:17.833Z,61.86523438
2022-10-28T02:41:18.684Z,61.93359375
2022-10-28T02:42:15.138Z,62.12695313
2022-10-28T02:43:15.798Z,62.11425781
2022-10-28T02:44:17.665Z,61.67285156
2022-10-28T02:45:17.787Z,62.36230469
2022-10-28T02:46:19.901Z,62.26855469
2022-10-28T02:47:17.244Z,62.57714844
2022-10-28T02:48:18.278Z,62.44042969
2022-10-28T02:49:22.210Z,62.33105469
2022-10-28T02:50:27.444Z,62.76855469
2022-10-28T02:51:26.182Z,62.79882813
2022-10-28T02:52:29.212Z,62.4453125
2022-10-28T02:54:26.549Z,62.19042969
2022-10-28T02:56:33.473Z,61.76464844
2022-10-28T02:57:27.518Z,61.53320313
2022-10-28T02:58:32.335Z,61.60546875
2022-10-28T02:59:25.810Z,61.58398438
2022-10-28T03:00:27.567Z,61.89257813
2022-10-28T03:01:22.106Z,62.15429688
2022-10-28T03:02:20.585Z,62.47167969
2022-10-28T03:03:22.467Z,61.92773438
2022-10-28T03:04:17.917Z,62.15625
2022-10-28T03:05:20.695Z,62.42773438
2022-10-28T03:06:15.600Z,62.4609375
2022-10-28T03:07:19.158Z,62.1484375
2022-10-28T03:08:13.413Z,62.43554688
2022-10-28T03:09:13.588Z,62.74902344
2022-10-28T03:10:11.588Z,62.90722656
2022-10-28T03:11:11.809Z,62.84863281
2022-10-28T03:12:07.254Z,62.38574219
2022-10-28T03:13:08.877Z,62.47460938
2022-10-28T03:14:14.618Z,62.97558594
2022-10-28T03:15:07.971Z,62.60644531
2022-10-28T03:16:06.092Z,62.71191406
2022-10-28T03:17:08.010Z,62.54101563
2022-10-28T03:18:01.031Z,62.54003906
2022-10-28T03:19:00.958Z,63.21679688
2022-10-28T03:19:57.659Z,63.05273438
2022-10-28T03:21:59.668Z,62.97558594
2022-10-28T03:23:01.770Z,63.19335938
2022-10-28T03:23:59.815Z,62.94921875
2022-10-28T03:25:00.728Z,63.45019531
2022-10-28T03:27:00.795Z,63.54199219
2022-10-28T03:27:56.064Z,63.07910156
2022-10-28T03:28:57.688Z,63.04101563
2022-10-28T03:30:42.386Z,62.87988281
2022-10-28T03:31:22.621Z,63.30175781
2022-10-28T03:32:19.508Z,62.53710938
2022-10-28T03:33:22.131Z,62.67285156
2022-10-28T03:34:16.685Z,62.63476563
2022-10-28T03:35:16.009Z,62.76953125
2022-10-28T03:36:11.606Z,63.29492188
2022-10-28T03:37:11.165Z,63.35839844
2022-10-28T03:38:07.395Z,63.04589844
2022-10-28T03:39:06.258Z,62.75585938
2022-10-28T03:40:01.165Z,62.61621094
2022-10-28T03:41:01.333Z,63.53125
2022-10-28T03:41:57.540Z,63.484375
2022-10-28T03:42:58.658Z,63.56347656
2022-10-28T03:43:59.889Z,63.04589844
2022-10-28T03:44:56.711Z,63.35253906
2022-10-28T03:45:56.510Z,63.58105469
2022-10-28T03:46:53.033Z,63.59082031
2022-10-28T03:47:54.687Z,63.6015625
2022-10-28T03:48:49.259Z,63.49707031
2022-10-28T03:49:48.247Z,63.50878906
2022-10-28T03:50:44.716Z,63.1875
2022-10-28T03:51:47.844Z,63.22070313
2022-10-28T03:52:43.169Z,63.1953125
2022-10-28T03:53:46.819Z,63.34570313
2022-10-28T03:54:44.086Z,63.24511719
2022-10-28T03:55:44.657Z,63.20019531
2022-10-28T03:56:40.334Z,63.11816406
2022-10-28T03:57:42.181Z,63.62304688
2022-10-28T03:58:37.283Z,63.53125
2022-10-28T03:58:41.208Z,63.53125
2022-10-28T03:59:37.805Z,63.38476563
2022-10-28T04:01:35.615Z,63.4296875
2022-10-28T04:02:28.395Z,63.06738281
2022-10-28T04:03:31.339Z,63.19042969
2022-10-28T04:04:33.023Z,63.05664063
2022-10-28T04:05:28.352Z,63.0546875
2022-10-28T04:06:27.629Z,62.88769531
2022-10-28T04:07:22.927Z,63.23925781
2022-10-28T04:08:23.484Z,63.3515625
2022-10-28T04:09:19.575Z,63.71582031
2022-10-28T04:10:18.861Z,63.89648438
2022-10-28T04:12:15.841Z,64.28027344
2022-10-28T04:13:17.422Z,63.5546875
2022-10-28T04:14:16.302Z,64.10351563
2022-10-28T04:15:18.968Z,64.34375
2022-10-28T04:16:11.863Z,64.23925781
2022-10-28T04:17:17.375Z,64.03222656
2022-10-28T04:18:16.558Z,64.04101563
2022-10-28T04:19:19.799Z,64.28808594
2022-10-28T04:20:15.139Z,64.10253906
2022-10-28T04:22:03.645Z,64.0546875
2022-10-28T04:22:46.281Z,63.54199219
2022-10-28T04:23:54.083Z,64.05957031
2022-10-28T04:24:52.062Z,63.7265625
2022-10-28T04:25:51.043Z,63.87402344
2022-10-28T04:26:49.074Z,63.99707031
2022-10-28T04:27:49.378Z,63.94726563
2022-10-28T04:28:44.663Z,63.88378906
2022-10-28T04:29:45.199Z,63.94140625
2022-10-28T04:31:45.533Z,64.17773438
2022-10-28T04:32:39.967Z,64.31542969
2022-10-28T04:33:36.274Z,64.52539063
2022-10-28T04:34:34.727Z,64.33105469
2022-10-28T04:35:37.435Z,64.30371094
2022-10-28T04:36:29.496Z,64.62597656
2022-10-28T04:37:30.325Z,64.47753906
2022-10-28T04:38:30.326Z,64.36132813
2022-10-28T04:39:29.381Z,64.05664063
2022-10-28T04:40:25.508Z,64.70996094
2022-10-28T04:41:22.278Z,64.48046875
2022-10-28T04:42:22.683Z,64.19335938
2022-10-28T04:43:18.821Z,64.51367188
2022-10-28T04:44:17.117Z,64.52246094
2022-10-28T04:45:16.360Z,64.85253906
2022-10-28T04:46:11.232Z,64.69433594
2022-10-28T04:47:10.251Z,64.85351563
2022-10-28T04:48:06.578Z,64.86523438
2022-10-28T04:49:10.146Z,64.51855469
2022-10-28T04:50:11.935Z,64.91992188
2022-10-28T04:51:09.817Z,64.48828125
2022-10-28T04:52:09.785Z,64.63574219
2022-10-28T04:53:09.620Z,64.54394531
2022-10-28T04:54:06.157Z,64.83203125
2022-10-28T04:55:12.894Z,64.59179688
2022-10-28T04:56:09.299Z,65.0078125
2022-10-28T04:57:06.376Z,64.89160156
2022-10-28T04:58:10.867Z,64.89355469
2022-10-28T04:59:57.633Z,64.84765625
2022-10-28T05:00:37.533Z,64.453125
2022-10-28T05:01:37.101Z,64.48144531
2022-10-28T05:02:37.172Z,64.29589844
2022-10-28T05:03:33.956Z,64.36425781
2022-10-28T05:04:35.263Z,64.2109375
2022-10-28T05:05:33.300Z,64.75683594
2022-10-28T05:06:34.689Z,64.07910156
2022-10-28T05:07:30.145Z,64.10058594
2022-10-28T05:08:31.434Z,63.99316406
2022-10-28T05:09:30.654Z,64.34472656
2022-10-28T05:11:26.677Z,64.43457031
2022-10-28T05:12:26.346Z,64.80175781
2022-10-28T05:13:21.585Z,64.44628906
2022-10-28T05:14:24.435Z,64.30761719
2022-10-28T05:15:19.646Z,64.74023438
2022-10-28T05:16:18.653Z,64.81152344
2022-10-28T05:17:17.527Z,64.98339844
2022-10-28T05:18:12.002Z,64.77734375
2022-10-28T05:19:13.039Z,64.75195313
2022-10-28T05:20:08.122Z,64.55664063
2022-10-28T05:21:12.845Z,64.79882813
2022-10-28T05:22:04.599Z,65.015625
2022-10-28T05:23:05.851Z,64.85351563
2022-10-28T05:24:04.993Z,65.06054688
2022-10-28T05:25:07.027Z,64.98046875
2022-10-28T05:26:08.442Z,64.87597656
2022-10-28T05:27:12.315Z,65.07128906
2022-10-28T05:28:14.112Z,65.17285156
2022-10-28T05:29:14.144Z,65.18457031
2022-10-28T05:30:18.329Z,65.42480469
2022-10-28T05:31:12.786Z,65.25292969
2022-10-28T05:32:12.403Z,65.21191406
2022-10-28T05:33:11.175Z,65.07421875
2022-10-28T05:34:07.666Z,65.47558594
2022-10-28T05:35:52.486Z,65.01757813
2022-10-28T05:36:13.857Z,64.875
2022-10-28T05:37:15.255Z,64.50292969
2022-10-28T05:38:14.394Z,64.80273438
2022-10-28T05:39:16.767Z,64.54882813
2022-10-28T05:40:15.806Z,64.87890625
2022-10-28T05:41:13.954Z,65.14160156
2022-10-28T05:42:15.662Z,64.41699219
2022-10-28T05:43:11.135Z,64.54589844
2022-10-28T05:44:16.490Z,64.54492188
2022-10-28T05:45:11.904Z,64.72363281
2022-10-28T05:47:10.080Z,65.09375
2022-10-28T05:48:09.277Z,65.02539063
2022-10-28T05:49:11.195Z,65.16113281
2022-10-28T05:50:20.163Z,65.10058594
2022-10-28T05:51:13.184Z,65.24902344
2022-10-28T05:52:16.633Z,64.94726563
2022-10-28T05:53:16.641Z,65.49609375
2022-10-28T05:54:13.168Z,65.45996094
2022-10-28T05:55:13.373Z,65.25390625
2022-10-28T05:56:11.527Z,65.04882813
2022-10-28T05:57:12.594Z,65.28808594
2022-10-28T05:58:18.426Z,65.04492188
2022-10-28T05:59:17.346Z,65.28515625
2022-10-28T06:00:17.651Z,65.69824219
2022-10-28T06:01:17.062Z,65.59082031
2022-10-28T06:02:16.979Z,65.66992188
2022-10-28T06:03:17.250Z,65.71386719
2022-10-28T06:04:12.732Z,65.81738281
2022-10-28T06:05:13.421Z,65.95703125
2022-10-28T06:06:11.708Z,65.69335938
2022-10-28T06:07:17.246Z,65.92382813
2022-10-28T06:08:09.866Z,66.07519531
2022-10-28T06:09:19.549Z,66.33886719
2022-10-28T06:10:18.365Z,65.75488281
2022-10-28T06:11:19.902Z,65.63867188
2022-10-28T06:12:16.230Z,65.9453125
2022-10-28T06:13:21.372Z,65.57910156
2022-10-28T06:14:14.619Z,65.69628906
2022-10-28T06:15:16.924Z,65.56542969
2022-10-28T06:17:23.156Z,65.40722656
2022-10-28T06:19:03.411Z,65.33886719
2022-10-28T06:19:32.808Z,65.61328125
2022-10-28T06:21:31.266Z,65.50097656
2022-10-28T06:22:26.221Z,64.99609375
2022-10-28T06:23:27.762Z,65.17773438
2022-10-28T06:24:25.776Z,65.20996094
2022-10-28T06:25:24.551Z,65.75976563
2022-10-28T06:27:22.711Z,65.15722656
2022-10-28T06:28:19.997Z,65.2578125
2022-10-28T06:29:24.794Z,65.35839844
2022-10-28T06:30:20.900Z,65.32617188
2022-10-28T06:32:18.139Z,65.85058594
2022-10-28T06:33:20.667Z,65.56445313
2022-10-28T06:34:15.908Z,65.26660156
2022-10-28T06:35:20.028Z,65.73828125
2022-10-28T06:36:12.799Z,65.63867188
2022-10-28T06:37:16.139Z,65.73828125
2022-10-28T06:38:09.734Z,65.68164063
2022-10-28T06:39:09.352Z,65.41796875
2022-10-28T06:40:07.394Z,65.46484375
2022-10-28T06:41:11.954Z,65.23632813
2022-10-28T06:42:12.033Z,65.66894531
2022-10-28T06:43:13.939Z,65.47167969
2022-10-28T06:44:09.397Z,66.04785156
2022-10-28T06:45:13.914Z,65.52148438
2022-10-28T06:47:09.102Z,65.02539063
2022-10-28T06:48:05.763Z,65.51757813
2022-10-28T06:49:07.031Z,65.39160156
2022-10-28T06:50:02.758Z,65.36425781
2022-10-28T06:51:10.003Z,65.49023438
2022-10-28T06:52:05.233Z,65.30371094
2022-10-28T06:53:04.980Z,65.27734375
2022-10-28T06:54:00.548Z,65.6796875
2022-10-28T06:55:00.940Z,65.54101563
2022-10-28T06:55:58.923Z,65.37988281
2022-10-28T06:57:00.498Z,65.86132813
2022-10-28T06:57:56.257Z,65.80371094
2022-10-28T06:58:57.359Z,65.63964844
2022-10-28T06:59:53.725Z,65.64257813
2022-10-28T07:00:57.010Z,65.7109375
2022-10-28T07:01:54.774Z,65.57324219
2022-10-28T07:02:58.196Z,65.91894531
2022-10-28T07:03:53.504Z,65.63085938
2022-10-28T07:05:01.967Z,65.47167969
2022-10-28T07:05:57.377Z,65.31152344
2022-10-28T07:06:59.577Z,65.48339844
2022-10-28T07:07:53.065Z,65.32324219
2022-10-28T07:08:55.862Z,65.71386719
2022-10-28T07:09:48.549Z,65.55175781
2022-10-28T07:10:48.205Z,64.99316406
2022-10-28T07:11:43.893Z,65.3125
2022-10-28T07:12:46.060Z,65.86132813
2022-10-28T07:13:49.131Z,65.50585938
2022-10-28T07:15:22.186Z,65.22949219
2022-10-28T07:17:51.550Z,63.45019531
2022-10-28T07:18:29.598Z,62.8125
2022-10-28T07:19:29.681Z,63.03027344
2022-10-28T07:20:23.093Z,63.21679688
2022-10-28T07:21:22.047Z,62.85644531
2022-10-28T07:22:21.453Z,63.60644531
2022-10-28T07:22:25.740Z,63.60644531
2022-10-28T07:23:18.605Z,64.3359375
2022-10-28T07:24:18.927Z,64.46777344
2022-10-28T07:25:19.363Z,64.06933594
2022-10-28T07:26:13.264Z,64.36035156
2022-10-28T07:27:15.261Z,64.35644531
2022-10-28T07:28:08.713Z,64.43457031
2022-10-28T07:29:08.136Z,64.54492188
2022-10-28T07:30:03.394Z,64.43945313
2022-10-28T07:32:04.995Z,64.74511719
2022-10-28T07:33:03.195Z,65.34082031
2022-10-28T07:33:57.343Z,65.34082031
2022-10-28T07:34:54.030Z,64.77636719
2022-10-28T07:36:50.514Z,64.84179688
2022-10-28T07:37:52.101Z,64.94628906
2022-10-28T07:38:44.754Z,65.39355469
2022-10-28T07:39:43.306Z,65.39550781
2022-10-28T07:40:42.410Z,65.49707031
2022-10-28T07:41:34.143Z,65.37207031
2022-10-28T07:42:32.167Z,65.50097656
2022-10-28T07:43:26.440Z,65.32910156
2022-10-28T07:44:23.867Z,65.43261719
2022-10-28T07:45:18.047Z,64.73046875
2022-10-28T07:46:18.840Z,65.05566406
2022-10-28T07:47:11.275Z,64.66601563
2022-10-28T07:48:11.952Z,65.00097656
2022-10-28T07:49:06.847Z,64.54003906
2022-10-28T07:50:05.038Z,64.828125
2022-10-28T07:50:59.373Z,65.60839844
2022-10-28T07:51:55.541Z,65.44726563
2022-10-28T07:52:57.009Z,65.24121094
2022-10-28T07:53:50.765Z,64.95410156
2022-10-28T07:54:52.359Z,65.1953125
2022-10-28T07:56:45.350Z,65.72558594
2022-10-28T07:57:36.980Z,65.96582031
2022-10-28T07:58:38.453Z,65.79589844
2022-10-28T07:59:29.502Z,65.30371094
2022-10-28T08:00:25.669Z,65.51953125
2022-10-28T08:02:19.709Z,65.70214844
2022-10-28T08:03:57.249Z,65.21289063
2022-10-28T08:05:19.928Z,64.34375
2022-10-28T08:06:00.251Z,64.49609375
2022-10-28T08:07:03.218Z,64.21289063
2022-10-28T08:08:01.477Z,65.47949219
2022-10-28T08:08:55.763Z,65.98925781
2022-10-28T08:09:54.939Z,64.63671875
2022-10-28T08:11:46.332Z,65.21777344
2022-10-28T08:12:44.865Z,64.99902344
2022-10-28T08:13:40.534Z,64.45410156
2022-10-28T08:14:40.386Z,64.97949219
2022-10-28T08:15:34.630Z,65.37792969
2022-10-28T08:17:28.104Z,65.57421875
2022-10-28T08:18:28.113Z,64.82617188
2022-10-28T08:19:22.878Z,65.50292969
2022-10-28T08:20:24.316Z,65.16601563
2022-10-28T08:21:17.806Z,65.47460938
2022-10-28T08:22:16.892Z,65.06054688
2022-10-28T08:23:11.055Z,65.27539063
2022-10-28T08:24:10.686Z,65.09082031
2022-10-28T08:25:10.047Z,64.68847656
2022-10-28T08:26:11.668Z,65.26171875
2022-10-28T08:27:03.787Z,64.81347656
2022-10-28T08:28:03.324Z,64.5703125
2022-10-28T08:29:00.862Z,64.69140625
2022-10-28T08:29:59.238Z,64.08691406
2022-10-28T08:31:08.203Z,64.71972656
2022-10-28T08:31:08.248Z,64.71972656
2022-10-28T08:31:08.674Z,64.71972656
2022-10-28T08:31:53.349Z,64.59960938
2022-10-28T08:32:50.442Z,64.58496094
2022-10-28T08:33:47.149Z,64.63085938
2022-10-28T08:34:45.370Z,63.7578125
2022-10-28T08:35:42.495Z,64.43066406
2022-10-28T08:36:41.041Z,64.7734375
2022-10-28T08:37:34.884Z,65.01074219
2022-10-28T08:38:34.507Z,64.74609375
2022-10-28T08:39:28.040Z,64.44824219
2022-10-28T08:40:27.160Z,64.48144531
2022-10-28T08:41:24.502Z,64.50390625
2022-10-28T08:42:22.556Z,64.5703125
2022-10-28T08:43:20.721Z,64.79980469
2022-10-28T08:43:34.984Z,64.79980469
2022-10-28T08:43:40.322Z,64.79980469
2022-10-28T08:44:17.996Z,64.98535156
2022-10-28T08:45:15.450Z,64.99316406
2022-10-28T08:46:13.017Z,64.64550781
2022-10-28T08:47:07.150Z,64.44042969
2022-10-28T08:48:10.040Z,64.48632813
2022-10-28T08:49:01.809Z,64.42773438
2022-10-28T08:50:02.883Z,64.66992188
2022-10-28T08:50:55.261Z,64.78710938
2022-10-28T08:51:56.584Z,64.79785156
2022-10-28T08:52:50.186Z,64.07910156
2022-10-28T08:53:51.249Z,64.08984375
2022-10-28T08:54:43.008Z,64.25097656
2022-10-28T08:55:39.196Z,64.54882813
2022-10-28T08:58:42.913Z,64.18066406
2022-10-28T08:59:22.926Z,63.25097656
2022-10-28T09:00:23.459Z,63.41894531
2022-10-28T09:01:19.060Z,64.00292969
2022-10-28T09:02:18.270Z,64.40332031
2022-10-28T09:03:12.583Z,63.76660156
2022-10-28T09:04:12.146Z,63.68554688
2022-10-28T09:05:06.545Z,64.08691406
2022-10-28T09:06:09.503Z,64.53320313
2022-10-28T09:07:02.944Z,64.5078125
2022-10-28T09:08:02.933Z,64.03808594
2022-10-28T09:08:59.475Z,64.58886719
2022-10-28T09:09:59.170Z,64.83007813
2022-10-28T09:10:53.187Z,64.67871094
2022-10-28T09:11:55.173Z,65.359375
2022-10-28T09:12:49.946Z,63.20019531
2022-10-28T09:13:50.441Z,63.93652344
2022-10-28T09:14:46.083Z,63.79882813
2022-10-28T09:15:48.119Z,64.16601563
2022-10-28T09:17:41.876Z,63.65722656
2022-10-28T09:18:33.897Z,63.44042969
2022-10-28T09:19:32.707Z,63.0546875
2022-10-28T09:20:28.292Z,63.62988281
2022-10-28T09:21:27.237Z,63.10644531
2022-10-28T09:22:23.085Z,63.47558594
2022-10-28T09:23:25.464Z,62.84570313
2022-10-28T09:24:17.755Z,63.25390625
2022-10-28T09:25:16.396Z,62.16601563
2022-10-28T09:27:12.961Z,62.66699219
2022-10-28T09:28:06.210Z,63.10742188
2022-10-28T09:30:00.529Z,62.8515625
2022-10-28T09:31:05.507Z,62.85839844
2022-10-28T09:31:58.775Z,63.17089844
2022-10-28T09:32:33.302Z,63.04785156
2022-10-28T09:33:26.632Z,62.94824219
2022-10-28T09:34:28.376Z,63.17089844
2022-10-28T09:35:23.566Z,62.94335938
2022-10-28T09:36:23.985Z,61.39160156
2022-10-28T09:37:22.177Z,61.80566406
2022-10-28T09:38:20.625Z,62.33789063
2022-10-28T09:39:25.335Z,62.27929688
2022-10-28T09:39:27.774Z,62.27929688
2022-10-28T09:43:31.971Z,61.47460938
2022-10-28T09:44:04.162Z,60.97851563
2022-10-28T09:45:04.092Z,61.07617188
2022-10-28T09:46:57.851Z,60.55664063
2022-10-28T09:47:59.122Z,59.79199219
2022-10-28T09:48:53.594Z,60.45703125
2022-10-28T09:49:53.021Z,59.60351563
2022-10-28T09:50:47.790Z,60.26953125
2022-10-28T09:52:43.585Z,60.38476563
2022-10-28T09:53:42.069Z,59.2890625
2022-10-28T09:54:37.325Z,59.93554688
2022-10-28T09:55:36.946Z,60.67675781
2022-10-28T09:57:32.916Z,59.20800781
2022-10-28T09:58:27.411Z,59.16015625
2022-10-28T09:59:29.756Z,59.27539063
2022-10-28T10:00:21.736Z,59.65722656
2022-10-28T10:02:18.117Z,60.43261719
2022-10-28T10:03:12.718Z,60.11132813
2022-10-28T10:04:14.490Z,60.06542969
2022-10-28T10:05:14.611Z,60.29785156
2022-10-28T10:05:17.003Z,60.29785156
2022-10-28T10:06:12.901Z,60.40332031
2022-10-28T10:07:08.252Z,60.21191406
2022-10-28T10:08:07.303Z,59.09179688
2022-10-28T10:09:01.745Z,59.40332031
2022-10-28T10:10:05.420Z,59.26464844
2022-10-28T10:10:58.030Z,59.82226563
2022-10-28T10:12:00.722Z,60.41308594
2022-10-28T10:12:56.124Z,59.58496094
2022-10-28T10:13:54.986Z,59.75878906
2022-10-28T10:14:54.112Z,59.63378906
2022-10-28T10:15:52.607Z,60.35351563
2022-10-28T10:17:50.741Z,59.80078125
2022-10-28T10:18:46.929Z,59.16894531
2022-10-28T10:19:50.564Z,60.11425781
2022-10-28T10:22:26.875Z,58.71484375
2022-10-28T10:23:20.467Z,58.14746094
2022-10-28T10:24:21.015Z,58.47265625
2022-10-28T10:25:17.178Z,57.91699219
2022-10-28T11:05:35.745Z,49.72558594
2022-10-28T11:05:38.203Z,49.72558594
2022-10-28T14:55:19.520Z,49.49707031
2022-10-28T15:29:05.127Z,48.32128906
2022-10-28T15:29:24.907Z,48.76464844
2022-10-28T15:30:25.018Z,49.11816406
2022-10-28T15:31:29.415Z,49.51757813
2022-10-28T15:32:23.931Z,50.11523438
2022-10-28T15:33:25.393Z,50.64257813
2022-10-28T15:34:19.704Z,51.29101563
2022-10-28T15:35:28.216Z,51.68554688
2022-10-28T15:38:13.546Z,52.91308594
2022-10-28T15:38:30.048Z,52.92578125
2022-10-28T15:39:29.202Z,53.19628906
2022-10-28T18:37:03.294Z,53.00976563
2022-10-28T18:37:41.858Z,53.01855469
2022-10-28T18:38:38.574Z,53.56835938
2022-10-28T18:39:36.089Z,54.29003906
2022-10-28T18:40:28.700Z,54.76367188
2022-10-28T18:41:31.762Z,55.58203125
2022-10-28T18:43:21.052Z,56.8359375
2022-10-28T18:44:15.510Z,57.22851563
2022-10-28T18:45:22.262Z,58.20996094
2022-10-28T18:46:15.651Z,58.58105469
2022-10-28T18:47:14.607Z,59.03515625
2022-10-28T18:48:10.846Z,59.36425781
2022-10-28T18:49:07.034Z,59.83691406
2022-10-28T18:50:00.419Z,60.11230469
2022-10-28T18:51:01.336Z,60.36328125
2022-10-28T18:51:51.838Z,61.02148438
2022-10-28T18:52:48.213Z,60.86328125
2022-10-28T18:53:43.348Z,61.20019531
2022-10-28T18:54:38.673Z,61.31738281
2022-10-28T18:55:30.580Z,61.54003906
2022-10-28T18:56:28.713Z,61.51074219
2022-10-28T18:58:25.780Z,62.28613281
2022-10-28T18:59:14.627Z,62.43261719
2022-10-28T19:00:18.004Z,62.42480469
2022-10-28T19:00:19.559Z,62.42480469
2022-10-28T19:01:05.428Z,62.21289063
2022-10-28T19:03:03.972Z,62.82226563
2022-10-28T19:03:53.315Z,62.83007813
2022-10-28T19:04:49.856Z,63.15917969
2022-10-28T19:05:41.342Z,63.47363281
2022-10-28T19:06:41.562Z,63.62890625
2022-10-28T19:07:36.629Z,63.80664063
2022-10-28T19:08:40.539Z,63.8125
2022-10-28T19:09:33.280Z,64.0703125
2022-10-28T19:10:27.470Z,64.21484375
2022-10-28T19:11:23.888Z,64.11621094
2022-10-28T19:12:16.869Z,64.20507813
2022-10-28T19:13:16.961Z,64.54394531
2022-10-28T19:14:09.076Z,64.56347656
2022-10-28T19:15:04.705Z,64.6640625
2022-10-28T19:16:02.918Z,64.76171875
2022-10-28T19:18:04.240Z,64.69824219
2022-10-28T19:18:27.525Z,64.62597656